createdAt,value
2018-11-10T00:00:58.800Z,48.97
2018-11-10T00:03:29.225Z,48.87
2018-11-10T00:05:58.925Z,49.30
2018-11-10T00:08:29.658Z,48.43
2018-11-10T00:10:59.227Z,50.47
2018-11-10T00:13:31.166Z,49.93
2018-11-10T00:16:01.218Z,49.53
2018-11-10T00:18:33.628Z,50.80
2018-11-10T00:21:04.013Z,47.80
2018-11-10T00:23:33.786Z,46.93
2018-11-10T00:26:03.583Z,47.00
2018-11-10T00:28:38.625Z,45.97
2018-11-10T00:31:08.337Z,48.07
2018-11-10T00:33:38.118Z,48.37
2018-11-10T00:36:07.978Z,47.87
2018-11-10T00:38:37.794Z,49.77
2018-11-10T00:41:07.669Z,49.13
2018-11-10T00:43:37.391Z,49.73
2018-11-10T00:46:07.242Z,48.43
2018-11-10T00:48:36.991Z,48.50
2018-11-10T00:51:06.927Z,46.83
2018-11-10T00:53:36.823Z,49.47
2018-11-10T00:56:06.711Z,49.67
2018-11-10T00:58:39.030Z,48.93
2018-11-10T01:01:08.780Z,49.33
2018-11-10T01:03:38.520Z,48.47
2018-11-10T01:06:08.316Z,47.73
2018-11-10T01:08:38.450Z,46.73
2018-11-10T01:11:08.884Z,50.23
2018-11-10T01:16:30.230Z,51.17
2018-11-10T01:19:00.671Z,50.13
2018-11-10T01:21:30.550Z,53.33
2018-11-10T01:24:00.857Z,55.73
2018-11-10T01:26:32.134Z,59.40
2018-11-10T01:29:02.438Z,66.40
2018-11-10T01:31:32.229Z,51.87
2018-11-10T01:34:02.567Z,55.20
2018-11-10T01:36:32.501Z,53.23
2018-11-10T01:39:04.037Z,54.20
2018-11-10T01:41:33.912Z,54.20
2018-11-10T01:44:03.889Z,56.03
2018-11-10T01:46:35.031Z,56.80
2018-11-10T01:49:05.055Z,61.77
2018-11-10T01:51:35.017Z,57.53
2018-11-10T01:54:04.951Z,57.70
2018-11-10T01:56:34.993Z,56.03
2018-11-10T01:59:05.633Z,57.57
2018-11-10T02:01:35.738Z,53.47
2018-11-10T02:04:06.513Z,56.87
2018-11-10T02:06:36.425Z,59.93
2018-11-10T02:09:09.942Z,57.43
2018-11-10T02:11:40.974Z,52.40
2018-11-10T02:14:11.314Z,61.67
2018-11-10T02:16:41.549Z,68.17
2018-11-10T02:19:12.069Z,64.27
2018-11-10T02:21:42.609Z,63.37
2018-11-10T02:24:13.382Z,64.90
2018-11-10T02:26:43.922Z,66.60
2018-11-10T02:29:14.619Z,63.43
2018-11-10T02:31:51.059Z,60.77
2018-11-10T02:34:21.823Z,59.80
2018-11-10T02:36:51.716Z,55.47
2018-11-10T02:39:22.910Z,55.30
2018-11-10T02:41:53.202Z,53.80
2018-11-10T02:44:23.540Z,51.50
2018-11-10T02:46:53.391Z,51.83
2018-11-10T02:49:28.088Z,53.37
2018-11-10T02:52:01.810Z,53.97
2018-11-10T02:54:37.742Z,51.27
2018-11-10T02:57:10.799Z,56.47
2018-11-10T02:59:40.938Z,52.63
2018-11-10T03:02:12.730Z,51.40
2018-11-10T03:04:42.608Z,55.07
2018-11-10T03:07:12.465Z,53.33
2018-11-10T03:09:42.267Z,52.00
2018-11-10T03:12:12.101Z,56.33
2018-11-10T03:14:41.816Z,54.70
2018-11-10T03:17:12.918Z,54.73
2018-11-10T03:19:42.622Z,52.93
2018-11-10T03:22:12.465Z,54.03
2018-11-10T03:24:42.213Z,52.00
2018-11-10T03:27:12.126Z,52.97
2018-11-10T03:29:41.992Z,53.50
2018-11-10T03:32:12.641Z,51.33
2018-11-10T03:34:42.435Z,53.77
2018-11-10T03:37:12.547Z,53.17
2018-11-10T03:39:42.251Z,61.93
2018-11-10T03:42:12.096Z,38.53
2018-11-10T03:44:41.899Z,51.97
2018-11-10T03:50:02.531Z,54.47
2018-11-10T03:52:32.402Z,46.13
2018-11-10T03:55:02.272Z,46.33
2018-11-10T03:57:32.595Z,52.07
2018-11-10T04:00:02.550Z,55.97
2018-11-10T04:02:32.427Z,55.10
2018-11-10T04:05:02.383Z,57.47
2018-11-10T04:07:32.659Z,56.47
2018-11-10T04:10:02.625Z,58.53
2018-11-10T04:12:33.207Z,56.03
2018-11-10T04:15:03.085Z,55.47
2018-11-10T04:17:32.854Z,57.90
2018-11-10T04:20:02.755Z,58.07
2018-11-10T04:22:35.065Z,55.50
2018-11-10T04:25:06.230Z,52.47
2018-11-10T04:27:35.959Z,49.80
2018-11-10T04:30:06.776Z,47.97
2018-11-10T04:32:37.334Z,44.97
2018-11-10T04:35:07.733Z,48.40
2018-11-10T04:37:37.894Z,49.23
2018-11-10T04:40:08.684Z,49.27
2018-11-10T04:42:38.494Z,48.10
2018-11-10T04:45:09.546Z,49.50
2018-11-10T04:47:39.546Z,51.33
2018-11-10T04:50:10.985Z,49.53
2018-11-10T04:52:41.128Z,47.67
2018-11-10T04:55:12.527Z,46.20
2018-11-10T04:57:43.026Z,50.20
2018-11-10T05:00:14.980Z,49.60
2018-11-10T05:02:45.641Z,51.30
2018-11-10T05:05:38.607Z,49.20
2018-11-10T05:08:08.285Z,49.67
2018-11-10T05:10:38.070Z,50.10
2018-11-10T05:13:07.866Z,52.60
2018-11-10T05:15:37.711Z,53.70
2018-11-10T05:18:07.533Z,52.23
2018-11-10T05:20:37.411Z,50.60
2018-11-10T05:23:07.172Z,46.63
2018-11-10T05:25:36.936Z,47.73
2018-11-10T05:28:06.872Z,48.63
2018-11-10T05:30:36.702Z,51.20
2018-11-10T05:33:06.349Z,48.60
2018-11-10T05:35:35.732Z,49.00
2018-11-10T05:38:05.578Z,48.30
2018-11-10T05:40:35.373Z,49.73
2018-11-10T05:43:05.268Z,49.27
2018-11-10T05:45:35.129Z,45.97
2018-11-10T05:48:04.892Z,47.50
2018-11-10T05:50:34.701Z,43.77
2018-11-10T05:53:04.518Z,44.13
2018-11-10T05:55:34.283Z,43.57
2018-11-10T05:58:04.111Z,45.90
2018-11-10T06:00:33.969Z,44.43
2018-11-10T06:03:03.946Z,46.03
2018-11-10T06:05:34.795Z,43.10
2018-11-10T06:08:04.630Z,43.80
2018-11-10T06:10:34.508Z,43.87
2018-11-10T06:13:04.181Z,42.40
2018-11-10T06:15:34.093Z,42.50
2018-11-10T06:18:03.920Z,41.80
2018-11-10T06:20:33.726Z,45.77
2018-11-10T06:23:03.626Z,43.40
2018-11-10T06:25:33.797Z,42.53
2018-11-10T06:28:03.583Z,42.77
2018-11-10T06:30:33.596Z,40.90
2018-11-10T06:33:03.548Z,39.93
2018-11-10T06:35:33.400Z,40.97
2018-11-10T06:38:03.332Z,39.57
2018-11-10T06:40:33.156Z,37.33
2018-11-10T06:43:02.968Z,36.27
2018-11-10T06:45:32.733Z,37.83
2018-11-10T06:48:02.544Z,32.50
2018-11-10T06:50:32.291Z,28.87
2018-11-10T06:53:02.088Z,28.13
2018-11-10T06:55:31.978Z,25.63
2018-11-10T06:58:01.861Z,25.13
2018-11-10T07:00:31.720Z,25.77
2018-11-10T07:03:01.546Z,26.43
2018-11-10T07:05:31.347Z,24.30
2018-11-10T07:08:01.254Z,25.43
2018-11-10T07:10:31.362Z,25.73
2018-11-10T07:13:01.232Z,25.70
2018-11-10T07:15:31.060Z,23.50
2018-11-10T07:18:00.927Z,22.87
2018-11-10T07:20:30.779Z,23.73
2018-11-10T07:23:00.762Z,23.83
2018-11-10T07:25:30.561Z,23.80
2018-11-10T07:28:00.811Z,22.93
2018-11-10T07:30:30.627Z,22.20
2018-11-10T07:33:00.481Z,19.93
2018-11-10T07:35:30.278Z,22.00
2018-11-10T07:40:51.467Z,20.23
2018-11-10T07:43:21.218Z,19.60
2018-11-10T07:45:51.088Z,21.57
2018-11-10T07:48:20.843Z,20.00
2018-11-10T07:50:50.703Z,20.47
2018-11-10T07:53:20.878Z,20.33
2018-11-10T07:55:51.094Z,19.63
2018-11-10T07:58:25.751Z,20.03
2018-11-10T08:01:00.484Z,18.40
2018-11-10T08:03:36.100Z,19.13
2018-11-10T08:06:07.219Z,19.47
2018-11-10T08:08:37.086Z,19.40
2018-11-10T08:11:07.432Z,17.97
2018-11-10T08:13:37.279Z,18.37
2018-11-10T08:16:07.575Z,18.83
2018-11-10T08:18:37.684Z,17.50
2018-11-10T08:21:07.927Z,17.27
2018-11-10T08:23:37.779Z,18.43
2018-11-10T08:26:09.294Z,17.07
2018-11-10T08:28:40.961Z,17.40
2018-11-10T08:31:10.943Z,16.50
2018-11-10T08:33:40.983Z,16.17
2018-11-10T08:36:10.773Z,17.50
2018-11-10T08:38:40.807Z,16.90
2018-11-10T08:41:11.147Z,17.57
2018-11-10T08:43:40.998Z,17.73
2018-11-10T08:46:10.836Z,18.13
2018-11-10T08:48:40.789Z,17.13
2018-11-10T08:51:10.609Z,17.27
2018-11-10T08:53:40.593Z,15.57
2018-11-10T08:56:10.594Z,10.37
2018-11-10T08:58:40.912Z,14.90
2018-11-10T09:01:10.883Z,16.87
2018-11-10T09:03:40.660Z,15.80
2018-11-10T09:06:10.483Z,17.13
2018-11-10T09:08:40.216Z,17.47
2018-11-10T09:11:10.639Z,14.43
2018-11-10T09:13:40.555Z,17.60
2018-11-10T09:16:13.914Z,15.53
2018-11-10T09:18:43.615Z,15.87
2018-11-10T09:21:13.503Z,16.93
2018-11-10T09:23:43.472Z,16.50
2018-11-10T09:26:13.527Z,16.60
2018-11-10T09:28:43.388Z,15.30
2018-11-10T09:31:13.269Z,16.43
2018-11-10T09:33:43.006Z,16.93
2018-11-10T09:36:13.083Z,15.80
2018-11-10T09:38:43.451Z,16.10
2018-11-10T09:41:13.203Z,17.80
2018-11-10T09:43:43.059Z,16.57
2018-11-10T09:46:12.930Z,14.87
2018-11-10T09:48:42.851Z,16.37
2018-11-10T09:51:12.686Z,15.80
2018-11-10T09:53:44.186Z,15.77
2018-11-10T09:56:15.041Z,15.97
2018-11-10T09:58:44.868Z,15.03
2018-11-10T10:01:15.403Z,15.33
2018-11-10T10:03:45.107Z,15.57
2018-11-10T10:06:14.891Z,14.27
2018-11-10T10:08:44.918Z,14.90
2018-11-10T10:11:14.746Z,14.57
2018-11-10T10:13:44.601Z,14.00
2018-11-10T10:16:14.530Z,13.83
2018-11-10T10:18:44.649Z,12.70
2018-11-10T10:21:14.486Z,13.33
2018-11-10T10:23:44.239Z,13.27
2018-11-10T10:26:14.181Z,13.83
2018-11-10T10:28:44.073Z,12.67
2018-11-10T10:31:13.934Z,13.23
2018-11-10T10:33:43.751Z,13.27
2018-11-10T10:36:13.714Z,13.27
2018-11-10T10:38:43.478Z,14.10
2018-11-10T10:41:13.360Z,12.67
2018-11-10T10:43:43.198Z,13.57
2018-11-10T10:46:13.335Z,14.20
2018-11-10T10:48:43.168Z,14.33
2018-11-10T10:51:13.035Z,13.37
2018-11-10T10:53:48.658Z,13.73
2018-11-10T10:56:24.364Z,13.53
2018-11-10T10:58:54.582Z,13.20
2018-11-10T11:01:29.322Z,13.33
2018-11-10T11:04:05.217Z,13.70
2018-11-10T11:06:35.165Z,13.90
2018-11-10T11:09:05.275Z,13.13
2018-11-10T11:11:35.156Z,14.10
2018-11-10T11:14:05.080Z,15.17
2018-11-10T11:16:34.981Z,15.33
2018-11-10T11:19:05.315Z,15.87
2018-11-10T11:21:35.224Z,14.70
2018-11-10T11:24:05.145Z,15.13
2018-11-10T11:26:35.082Z,15.13
2018-11-10T11:29:04.907Z,15.93
2018-11-10T11:31:34.757Z,15.63
2018-11-10T11:34:04.796Z,16.00
2018-11-10T11:36:34.722Z,16.20
2018-11-10T11:39:04.785Z,15.63
2018-11-10T11:41:34.859Z,15.73
2018-11-10T11:44:04.601Z,15.30
2018-11-10T11:46:34.363Z,15.37
2018-11-10T11:49:04.538Z,15.03
2018-11-10T11:51:34.430Z,15.83
2018-11-10T11:54:04.260Z,16.37
2018-11-10T11:56:34.151Z,14.63
2018-11-10T11:59:03.940Z,15.77
2018-11-10T12:01:33.814Z,14.93
2018-11-10T12:04:03.611Z,15.20
2018-11-10T12:06:33.589Z,15.60
2018-11-10T12:09:03.357Z,15.17
2018-11-10T12:11:33.178Z,15.67
2018-11-10T12:14:03.052Z,15.40
2018-11-10T12:16:33.029Z,16.47
2018-11-10T12:19:02.919Z,16.30
2018-11-10T12:21:32.939Z,15.57
2018-11-10T12:24:02.920Z,15.67
2018-11-10T12:26:32.697Z,15.47
2018-11-10T12:29:02.662Z,15.77
2018-11-10T12:31:32.795Z,15.77
2018-11-10T12:34:02.733Z,15.83
2018-11-10T12:36:32.471Z,16.23
2018-11-10T12:39:02.450Z,16.07
2018-11-10T12:41:32.397Z,16.87
2018-11-10T12:44:02.241Z,16.17
2018-11-10T12:46:34.208Z,16.17
2018-11-10T12:49:04.153Z,16.07
2018-11-10T12:51:34.053Z,15.67
2018-11-10T12:54:03.819Z,15.40
2018-11-10T12:56:34.380Z,15.37
2018-11-10T12:59:05.928Z,15.63
2018-11-10T13:01:35.677Z,14.50
2018-11-10T13:04:05.647Z,15.53
2018-11-10T13:06:35.651Z,15.43
2018-11-10T13:09:07.600Z,14.93
2018-11-10T13:11:37.675Z,18.00
2018-11-10T13:19:09.598Z,17.23
2018-11-10T13:22:26.431Z,15.27
2018-11-10T13:25:21.879Z,16.17
2018-11-10T13:28:02.251Z,15.07
2018-11-10T13:30:43.635Z,16.50
2018-11-10T13:33:25.875Z,17.17
2018-11-10T13:39:19.577Z,17.20
2018-11-10T13:41:52.929Z,17.23
2018-11-10T13:44:40.555Z,17.30
2018-11-10T13:50:11.351Z,17.03
2018-11-10T13:52:55.448Z,17.83
2018-11-10T13:55:33.919Z,17.40
2018-11-10T13:58:36.384Z,18.13
2018-11-10T14:01:34.636Z,18.90
2018-11-10T14:12:55.591Z,18.67
2018-11-10T14:15:24.457Z,17.90
2018-11-10T14:17:53.819Z,19.10
2018-11-10T14:20:24.802Z,17.87
2018-11-10T14:22:54.019Z,17.60
2018-11-10T14:25:23.255Z,17.83
2018-11-10T14:27:52.399Z,18.13
2018-11-10T14:30:22.366Z,17.83
2018-11-10T14:32:51.516Z,17.50
2018-11-10T14:35:20.446Z,17.37
2018-11-10T14:37:49.347Z,16.57
2018-11-10T14:40:18.841Z,17.37
2018-11-10T14:42:47.861Z,16.83
2018-11-10T14:45:18.431Z,17.27
2018-11-10T14:47:47.935Z,16.63
2018-11-10T14:50:17.887Z,17.27
2018-11-10T14:52:47.124Z,16.97
2018-11-10T14:55:16.352Z,16.03
2018-11-10T14:57:45.268Z,15.83
2018-11-10T15:00:18.222Z,15.93
2018-11-10T15:02:48.256Z,16.07
2018-11-10T15:05:17.818Z,16.93
2018-11-10T15:07:47.645Z,17.23
2018-11-10T15:10:17.882Z,16.87
2018-11-10T15:12:47.167Z,16.37
2018-11-10T15:15:17.884Z,16.50
2018-11-10T15:17:47.893Z,16.53
2018-11-10T15:20:18.226Z,16.70
2018-11-10T15:22:47.269Z,18.13
2018-11-10T15:25:19.188Z,18.67
2018-11-10T15:27:49.354Z,19.77
2018-11-10T15:30:19.597Z,18.03
2018-11-10T15:32:49.267Z,18.23
2018-11-10T15:35:20.233Z,17.53
2018-11-10T15:37:50.335Z,18.00
2018-11-10T15:40:20.073Z,21.83
2018-11-10T15:42:49.196Z,21.90
2018-11-10T15:45:19.298Z,19.43
2018-11-10T15:47:48.271Z,19.60
2018-11-10T15:50:18.692Z,20.93
2018-11-10T15:52:47.604Z,20.57
2018-11-10T15:55:16.507Z,21.67
2018-11-10T15:57:45.509Z,24.67
2018-11-10T16:00:16.162Z,20.03
2018-11-10T16:02:45.188Z,19.13
2018-11-10T16:05:14.729Z,19.23
2018-11-10T16:07:43.844Z,20.03
2018-11-10T16:10:13.314Z,18.67
2018-11-10T16:12:42.485Z,17.80
2018-11-10T16:15:14.420Z,21.53
2018-11-10T16:17:43.620Z,22.33
2018-11-10T16:20:16.077Z,19.80
2018-11-10T16:22:46.955Z,17.43
2018-11-10T16:25:16.035Z,17.30
2018-11-10T16:27:45.447Z,17.43
2018-11-10T16:30:16.524Z,17.60
2018-11-10T16:32:45.815Z,16.17
2018-11-10T16:35:16.704Z,17.03
2018-11-10T16:37:45.659Z,18.60
2018-11-10T16:40:16.438Z,17.40
2018-11-10T16:42:46.324Z,18.10
2018-11-10T16:45:17.863Z,16.43
2018-11-10T16:47:47.844Z,17.93
2018-11-10T16:50:16.807Z,17.03
2018-11-10T16:52:46.597Z,17.20
2018-11-10T16:55:15.812Z,18.90
2018-11-10T16:57:45.089Z,19.57
2018-11-10T17:00:17.924Z,19.43
2018-11-10T17:02:46.905Z,19.57
2018-11-10T17:05:20.076Z,19.13
2018-11-10T17:07:56.764Z,19.17
2018-11-10T17:10:31.397Z,18.93
2018-11-10T17:13:03.942Z,19.43
2018-11-10T17:15:35.961Z,18.40
2018-11-10T17:18:11.063Z,19.10
2018-11-10T17:20:50.788Z,18.97
2018-11-10T17:23:25.221Z,18.47
2018-11-10T17:26:14.129Z,20.50
2018-11-10T17:28:46.219Z,19.83
2018-11-10T17:31:19.388Z,19.83
2018-11-10T17:33:51.484Z,20.73
2018-11-10T17:36:25.829Z,19.97
2018-11-10T17:39:04.534Z,20.03
2018-11-10T17:41:34.554Z,20.07
2018-11-10T17:44:05.874Z,21.40
2018-11-10T17:46:36.536Z,22.30
2018-11-10T17:49:05.484Z,21.57
2018-11-10T17:51:36.074Z,21.03
2018-11-10T17:54:05.184Z,20.80
2018-11-10T17:56:34.131Z,22.97
2018-11-10T17:59:03.126Z,22.13
2018-11-10T18:01:32.421Z,20.77
2018-11-10T18:04:01.795Z,22.90
2018-11-10T18:06:30.515Z,21.27
2018-11-10T18:08:59.510Z,21.47
2018-11-10T18:11:29.529Z,22.90
2018-11-10T18:13:58.554Z,23.40
2018-11-10T18:16:27.631Z,24.83
2018-11-10T18:18:56.674Z,27.07
2018-11-10T18:21:25.738Z,27.47
2018-11-10T18:23:55.532Z,26.27
2018-11-10T18:26:27.241Z,25.07
2018-11-10T18:28:58.083Z,35.93
2018-11-10T18:31:28.062Z,28.73
2018-11-10T18:34:02.341Z,26.37
2018-11-10T18:36:37.146Z,23.70
2018-11-10T18:39:26.525Z,23.53
2018-11-10T18:41:57.003Z,23.17
2018-11-10T18:44:26.449Z,24.73
2018-11-10T18:46:56.859Z,24.17
2018-11-10T18:49:26.101Z,24.00
2018-11-10T18:51:55.350Z,21.23
2018-11-10T18:54:26.499Z,23.40
2018-11-10T18:56:56.319Z,23.30
2018-11-10T18:59:26.116Z,22.77
2018-11-10T19:01:55.466Z,21.63
2018-11-10T19:04:25.495Z,21.30
2018-11-10T19:06:54.720Z,20.67
2018-11-10T19:12:13.808Z,22.00
2018-11-10T19:14:42.800Z,20.60
2018-11-10T19:17:11.769Z,19.93
2018-11-10T19:19:39.740Z,19.33
2018-11-10T19:22:08.784Z,20.43
2018-11-10T19:24:37.847Z,21.07
2018-11-10T19:27:06.760Z,22.70
2018-11-10T19:29:35.815Z,23.90
2018-11-10T19:32:05.690Z,25.60
2018-11-10T19:34:35.548Z,21.83
2018-11-10T19:37:04.716Z,21.27
2018-11-10T19:39:33.608Z,20.43
2018-11-10T19:42:02.671Z,21.00
2018-11-10T19:44:32.054Z,21.57
2018-11-10T19:47:01.574Z,20.40
2018-11-10T19:49:30.716Z,21.23
2018-11-10T19:52:01.200Z,19.87
2018-11-10T19:54:30.508Z,21.63
2018-11-10T19:56:59.739Z,20.87
2018-11-10T19:59:30.085Z,21.53
2018-11-10T20:01:59.591Z,22.37
2018-11-10T20:04:29.496Z,23.80
2018-11-10T20:06:59.895Z,22.00
2018-11-10T20:09:31.149Z,21.60
2018-11-10T20:12:01.985Z,17.83
2018-11-10T20:14:33.390Z,22.93
2018-11-10T20:17:04.658Z,22.47
2018-11-10T20:19:38.314Z,22.03
2018-11-10T20:22:10.037Z,24.00
2018-11-10T20:24:43.383Z,21.57
2018-11-10T20:27:17.769Z,23.10
2018-11-10T20:29:49.251Z,20.37
2018-11-10T20:32:24.889Z,19.93
2018-11-10T20:34:54.785Z,21.83
2018-11-10T20:37:26.271Z,20.43
2018-11-10T20:39:58.354Z,22.67
2018-11-10T20:42:28.026Z,23.30
2018-11-10T20:45:05.279Z,22.57
2018-11-10T20:47:36.388Z,22.63
2018-11-10T20:50:13.128Z,22.30
2018-11-10T20:52:44.575Z,23.00
2018-11-10T20:55:19.049Z,24.63
2018-11-10T20:57:54.329Z,24.67
2018-11-10T21:00:30.305Z,24.23
2018-11-10T21:03:01.199Z,23.57
2018-11-10T21:05:33.149Z,22.80
2018-11-10T21:08:04.433Z,23.30
2018-11-10T21:10:37.871Z,23.40
2018-11-10T21:13:07.885Z,23.87
2018-11-10T21:15:39.073Z,23.60
2018-11-10T21:18:09.822Z,23.87
2018-11-10T21:20:40.487Z,24.13
2018-11-10T21:23:10.599Z,23.60
2018-11-10T21:25:40.572Z,23.33
2018-11-10T21:28:10.663Z,23.23
2018-11-10T21:30:45.089Z,23.20
2018-11-10T21:33:14.050Z,23.83
2018-11-10T21:35:43.248Z,23.70
2018-11-10T21:38:25.785Z,24.03
2018-11-10T21:41:05.645Z,24.47
2018-11-10T21:43:45.167Z,23.10
2018-11-10T21:48:59.192Z,24.27
2018-11-10T21:51:28.053Z,24.03
2018-11-10T21:53:58.023Z,25.43
2018-11-10T21:56:27.092Z,25.03
2018-11-10T21:58:58.535Z,24.23
2018-11-10T22:01:27.508Z,23.07
2018-11-10T22:03:56.534Z,23.57
2018-11-10T22:06:26.291Z,24.23
2018-11-10T22:08:55.418Z,24.93
2018-11-10T22:11:24.365Z,24.57
2018-11-10T22:13:53.606Z,25.63
2018-11-10T22:16:24.984Z,25.33
2018-11-10T22:18:54.512Z,23.80
2018-11-10T22:21:23.733Z,24.87
2018-11-10T22:23:54.019Z,24.47
2018-11-10T22:26:25.051Z,26.83
2018-11-10T22:28:54.174Z,26.07
2018-11-10T22:31:23.610Z,27.37
2018-11-10T22:33:52.798Z,26.60
2018-11-10T22:36:22.068Z,26.37
2018-11-10T22:38:51.108Z,24.63
2018-11-10T22:41:20.456Z,25.67
2018-11-10T22:43:49.318Z,25.87
2018-11-10T22:46:18.355Z,26.80
2018-11-10T22:48:48.161Z,26.30
2018-11-10T22:51:17.129Z,26.77
2018-11-10T22:53:46.423Z,26.33
2018-11-10T22:56:15.965Z,26.20
2018-11-10T22:58:46.706Z,26.00
2018-11-10T23:01:32.923Z,26.70
2018-11-10T23:04:02.197Z,26.33
2018-11-10T23:06:31.147Z,27.43
2018-11-10T23:09:01.513Z,26.77
2018-11-10T23:11:30.504Z,25.37
2018-11-10T23:14:00.032Z,26.37
2018-11-10T23:16:29.724Z,26.50
2018-11-10T23:18:58.832Z,26.73
2018-11-10T23:21:28.870Z,26.83
2018-11-10T23:23:59.203Z,25.70
2018-11-10T23:26:28.498Z,27.00
2018-11-10T23:28:57.296Z,27.27
2018-11-10T23:31:26.208Z,25.23
2018-11-10T23:33:56.103Z,27.00
2018-11-10T23:36:25.087Z,26.40
2018-11-10T23:38:54.221Z,26.07
2018-11-10T23:41:23.158Z,28.20
2018-11-10T23:43:52.035Z,26.30
2018-11-10T23:46:20.859Z,26.77
2018-11-10T23:48:49.746Z,26.70
2018-11-10T23:51:19.708Z,26.47
2018-11-10T23:53:48.579Z,25.03
2018-11-10T23:56:17.771Z,25.70
2018-11-10T23:58:46.684Z,24.70
